Time;durP1;ratioP1;P1;durP2;ratioP2;P2;SDS_P1;SDS_P2;PMS_P1;PMS_P2;Temp;Humidity;BMP_temperature;BMP_pressure;BME280_temperature;BME280_humidity;BME280_pressure;Samples;Min_cycle;Max_cycle;Signal;HPM_P1;HPM_P2
2021/09/03 00:00:52;;;;;;;;;12.75;12.75;;;;;18.54;57.39;101673.00;4907636;28;45553;-79
2021/09/03 00:03:17;;;;;;;;;13.50;13.25;;;;;18.51;57.97;101668.03;4917072;28;45412;-78
2021/09/03 00:05:42;;;;;;;;;13.00;13.00;;;;;18.49;57.38;101665.50;4906238;28;45502;-78
2021/09/03 00:08:08;;;;;;;;;15.25;14.75;;;;;18.47;57.57;101663.03;4911092;28;45482;-76
2021/09/03 00:10:34;;;;;;;;;16.00;13.50;;;;;18.45;57.52;101664.22;4920278;28;45524;-77
2021/09/03 00:12:59;;;;;;;;;20.00;14.50;;;;;18.42;57.82;101661.88;4916466;28;45427;-77
2021/09/03 00:15:25;;;;;;;;;14.25;14.25;;;;;18.42;58.06;101665.41;4915891;28;46278;-77
2021/09/03 00:17:50;;;;;;;;;16.50;16.00;;;;;18.40;57.90;101659.41;4930944;28;45614;-77
2021/09/03 00:20:16;;;;;;;;;15.75;13.25;;;;;18.36;57.87;101654.59;4911555;28;45517;-77
2021/09/03 00:22:43;;;;;;;;;16.00;13.50;;;;;18.35;57.87;101652.94;4910466;28;45789;-77
2021/09/03 00:25:10;;;;;;;;;15.50;15.00;;;;;18.34;57.98;101659.28;4909609;28;46243;-77
2021/09/03 00:27:37;;;;;;;;;16.00;14.00;;;;;18.32;58.68;101656.78;4910865;28;45573;-77
2021/09/03 00:30:05;;;;;;;;;13.50;13.50;;;;;18.30;58.54;101657.97;4905253;28;45650;-77
2021/09/03 00:32:30;;;;;;;;;17.75;13.50;;;;;18.28;58.32;101663.50;4909319;28;45463;-77
2021/09/03 00:34:55;;;;;;;;;18.75;12.50;;;;;18.27;58.28;101662.69;4921742;28;49107;-77
2021/09/03 00:37:21;;;;;;;;;16.75;15.00;;;;;18.26;58.36;101654.81;4914768;28;45538;-77
2021/09/03 00:39:46;;;;;;;;;15.50;13.25;;;;;18.24;58.32;101652.31;4908093;28;45603;-77
2021/09/03 00:42:13;;;;;;;;;15.50;15.25;;;;;18.21;58.26;101650.00;4906560;28;45512;-77
2021/09/03 00:44:39;;;;;;;;;16.25;15.25;;;;;18.20;58.53;101647.50;4920806;28;46419;-77
2021/09/03 00:47:05;;;;;;;;;13.25;13.25;;;;;18.18;58.48;101641.50;4910234;28;45428;-76
2021/09/03 00:49:31;;;;;;;;;21.75;18.50;;;;;18.16;58.98;101638.16;4906810;28;45471;-76
2021/09/03 00:51:58;;;;;;;;;15.25;15.25;;;;;18.14;58.73;101638.34;4906922;28;46016;-77
2021/09/03 00:54:24;;;;;;;;;16.25;15.50;;;;;18.12;58.72;101640.34;4905960;28;45550;-76
2021/09/03 00:56:49;;;;;;;;;15.75;14.50;;;;;18.10;58.94;101633.50;4913112;28;45337;-76
2021/09/03 00:59:14;;;;;;;;;19.75;17.50;;;;;18.09;58.95;101627.34;4909460;28;46088;-76
2021/09/03 01:01:40;;;;;;;;;16.50;14.50;;;;;18.07;59.14;101628.53;4914096;28;45583;-76
2021/09/03 01:04:05;;;;;;;;;18.00;16.00;;;;;18.02;59.43;101621.03;4913330;28;49729;-76
2021/09/03 01:06:30;;;;;;;;;16.50;15.25;;;;;18.01;59.36;101619.38;4908707;28;45336;-77
2021/09/03 01:08:56;;;;;;;;;20.00;17.25;;;;;18.00;59.12;101615.88;4904187;28;45697;-77
2021/09/03 01:11:21;;;;;;;;;20.00;18.75;;;;;17.98;59.44;101615.22;4921634;28;45607;-76
2021/09/03 01:13:47;;;;;;;;;19.00;17.50;;;;;17.97;59.31;101618.06;4922926;28;45769;-76
2021/09/03 01:16:12;;;;;;;;;19.75;18.25;;;;;17.95;59.81;101615.56;4919278;28;45416;-76
2021/09/03 01:18:37;;;;;;;;;18.75;15.25;;;;;17.95;59.82;101617.38;4928916;28;45476;-77
2021/09/03 01:21:03;;;;;;;;;19.75;18.50;;;;;17.92;59.89;101610.56;4904268;28;45490;-76
2021/09/03 01:23:29;;;;;;;;;19.25;17.00;;;;;17.90;59.62;101606.38;4908478;28;47080;-76
2021/09/03 01:25:54;;;;;;;;;22.75;18.00;;;;;17.90;59.79;101603.72;4910870;28;45581;-76
2021/09/03 01:28:20;;;;;;;;;20.25;16.75;;;;;17.89;60.37;101605.56;4913283;28;45504;-76
2021/09/03 01:30:46;;;;;;;;;21.00;18.00;;;;;17.85;59.93;101601.56;4917974;28;45476;-76
2021/09/03 01:33:11;;;;;;;;;19.25;18.25;;;;;17.86;60.00;101607.78;4909294;28;46449;-76
2021/09/03 01:35:37;;;;;;;;;18.75;18.50;;;;;17.84;60.23;101602.59;4907036;28;45511;-76
2021/09/03 01:38:05;;;;;;;;;22.50;17.25;;;;;17.82;60.29;101601.94;4910464;28;45924;-76
2021/09/03 01:40:31;;;;;;;;;21.50;20.75;;;;;17.79;60.71;101595.06;4935007;28;45550;-76
2021/09/03 01:42:56;;;;;;;;;24.25;22.00;;;;;17.76;60.64;101598.09;4916180;28;46538;-76
2021/09/03 01:45:22;;;;;;;;;24.75;22.50;;;;;17.73;60.79;101595.78;4915985;28;45518;-76
2021/09/03 01:47:47;;;;;;;;;26.50;24.75;;;;;17.71;61.18;101596.97;4910314;28;46132;-76
2021/09/03 01:50:14;;;;;;;;;34.25;28.75;;;;;17.70;61.27;101592.59;4909421;28;50179;-76
2021/09/03 01:52:40;;;;;;;;;37.25;30.25;;;;;17.70;61.41;101600.63;4909066;28;45594;-76
2021/09/03 01:55:05;;;;;;;;;31.00;27.00;;;;;17.67;61.53;101595.63;4908158;28;45393;-76
2021/09/03 01:57:31;;;;;;;;;34.75;30.50;;;;;17.66;61.46;101597.47;4916904;28;45565;-76
2021/09/03 01:59:56;;;;;;;;;37.75;30.25;;;;;17.65;61.55;101600.31;4906879;28;45449;-76
2021/09/03 02:02:22;;;;;;;;;34.50;30.00;;;;;17.61;61.61;101597.19;4910927;28;45498;-77
2021/09/03 02:04:47;;;;;;;;;36.50;31.25;;;;;17.61;61.73;101591.84;4920589;28;46115;-77
2021/09/03 02:07:13;;;;;;;;;45.25;33.00;;;;;17.57;61.81;101586.00;4918668;28;45585;-76
2021/09/03 02:09:38;;;;;;;;;37.50;31.25;;;;;17.56;62.10;101579.00;4916951;28;45524;-77
2021/09/03 02:12:03;;;;;;;;;39.00;31.50;;;;;17.54;62.40;101582.84;4905005;28;46189;-77
2021/09/03 02:14:29;;;;;;;;;43.25;33.25;;;;;17.52;62.67;101579.50;4912880;28;45511;-76
2021/09/03 02:16:54;;;;;;;;;36.50;31.75;;;;;17.51;62.54;101580.53;4929319;28;46045;-76
2021/09/03 02:19:20;;;;;;;;;42.00;32.00;;;;;17.50;62.63;101584.19;4925474;28;50511;-76
2021/09/03 02:21:45;;;;;;;;;37.00;30.00;;;;;17.47;62.70;101593.38;4916682;28;46510;-76
2021/09/03 02:24:11;;;;;;;;;40.50;31.75;;;;;17.45;62.51;101581.22;4919308;28;45383;-76
2021/09/03 02:26:36;;;;;;;;;36.25;31.75;;;;;17.44;62.67;101582.22;4921025;28;45451;-76
2021/09/03 02:29:02;;;;;;;;;37.75;32.00;;;;;17.41;63.13;101586.91;4909519;28;56361;-76
2021/09/03 02:31:28;;;;;;;;;31.75;28.75;;;;;17.39;62.81;101583.56;4907323;28;46180;-76
2021/09/03 02:33:54;;;;;;;;;29.00;27.25;;;;;17.34;63.48;101599.28;4909649;28;45551;-76
2021/09/03 02:36:19;;;;;;;;;34.00;29.00;;;;;17.29;63.34;101593.63;4925012;28;45606;-76
2021/09/03 02:38:45;;;;;;;;;30.75;28.75;;;;;17.28;63.92;101585.78;4920739;28;45458;-76
2021/09/03 02:41:11;;;;;;;;;33.25;29.75;;;;;17.25;63.32;101581.63;4910552;28;47099;-76
2021/09/03 02:43:36;;;;;;;;;30.75;27.00;;;;;17.24;63.78;101579.13;4907091;28;45499;-76
2021/09/03 02:46:02;;;;;;;;;29.00;27.25;;;;;17.19;63.55;101577.81;4907224;28;45717;-76
2021/09/03 02:48:27;;;;;;;;;29.75;25.25;;;;;17.18;63.76;101568.13;4907704;28;45463;-76
2021/09/03 02:50:53;;;;;;;;;32.00;25.50;;;;;17.18;63.94;101567.28;4902990;28;47108;-77
2021/09/03 02:53:18;;;;;;;;;30.00;27.75;;;;;17.17;63.84;101569.13;4910677;28;45452;-76
2021/09/03 02:55:43;;;;;;;;;30.25;27.50;;;;;17.16;64.02;101570.16;4907321;28;45526;-76
2021/09/03 02:58:09;;;;;;;;;34.25;28.50;;;;;17.13;64.11;101564.28;4916216;28;45420;-75
2021/09/03 03:00:34;;;;;;;;;31.25;27.50;;;;;17.13;64.36;101562.44;4908393;28;46046;-76
2021/09/03 03:03:00;;;;;;;;;33.25;27.25;;;;;17.11;64.13;101561.81;4918397;28;45589;-76
2021/09/03 03:05:26;;;;;;;;;32.00;27.50;;;;;17.09;64.42;101561.16;4909842;28;45351;-77
2021/09/03 03:07:51;;;;;;;;;34.75;30.50;;;;;17.08;64.05;101555.97;4907118;28;45432;-77
2021/09/03 03:10:17;;;;;;;;;39.25;32.00;;;;;17.06;64.53;101555.31;4906785;28;47210;-76
2021/09/03 03:12:43;;;;;;;;;31.75;29.25;;;;;17.05;64.60;101557.16;4907023;28;45393;-76
2021/09/03 03:15:09;;;;;;;;;34.75;31.50;;;;;17.04;64.47;101554.66;4908526;28;45431;-76
2021/09/03 03:17:35;;;;;;;;;31.75;28.75;;;;;17.03;64.53;101555.66;4930765;28;45591;-76
2021/09/03 03:20:00;;;;;;;;;36.75;27.50;;;;;17.00;64.47;101556.00;4908958;28;46093;-77
2021/09/03 03:22:26;;;;;;;;;34.00;30.00;;;;;16.98;64.64;101550.81;4916747;28;45503;-76
2021/09/03 03:24:52;;;;;;;;;34.75;31.00;;;;;16.96;64.85;101555.50;4914573;28;46006;-76
2021/09/03 03:27:17;;;;;;;;;34.25;29.75;;;;;16.95;64.55;101560.00;4905172;28;45477;-77
2021/09/03 03:29:43;;;;;;;;;35.50;31.00;;;;;16.93;64.58;101556.69;4902468;28;48393;-76
2021/09/03 03:32:09;;;;;;;;;30.50;29.50;;;;;16.91;65.12;101557.84;4921329;28;45446;-76
2021/09/03 03:34:34;;;;;;;;;36.25;32.00;;;;;16.88;65.10;101548.34;4909635;28;45598;-76
2021/09/03 03:37:00;;;;;;;;;30.25;28.50;;;;;16.86;64.77;101545.00;4907941;28;45484;-76
2021/09/03 03:39:26;;;;;;;;;31.50;27.25;;;;;16.85;64.67;101548.69;4907767;28;46686;-75
2021/09/03 03:41:52;;;;;;;;;38.50;32.00;;;;;16.82;65.11;101551.72;4907052;28;45465;-76
2021/09/03 03:44:18;;;;;;;;;38.50;31.00;;;;;16.81;65.06;101555.38;4910894;28;45564;-76
2021/09/03 03:46:44;;;;;;;;;34.00;30.50;;;;;16.79;65.19;101565.41;4909550;28;45539;-76
2021/09/03 03:49:10;;;;;;;;;33.50;30.00;;;;;16.76;65.16;101571.88;4908760;28;46464;-76
2021/09/03 03:51:35;;;;;;;;;32.75;28.25;;;;;16.70;65.79;101567.22;4911518;28;45463;-76
2021/09/03 03:54:01;;;;;;;;;28.75;27.00;;;;;16.65;65.81;101568.72;4904429;28;46045;-76
2021/09/03 03:56:26;;;;;;;;;35.25;28.00;;;;;16.59;65.95;101558.72;4917695;28;45627;-76
2021/09/03 03:58:52;;;;;;;;;29.25;25.75;;;;;16.62;66.09;101553.06;4909091;28;45451;-77
2021/09/03 04:01:17;;;;;;;;;31.50;27.75;;;;;16.62;65.80;101553.06;4909451;28;45578;-77
2021/09/03 04:03:42;;;;;;;;;28.75;27.25;;;;;16.60;66.17;101558.56;4910125;28;45772;-77
2021/09/03 04:06:08;;;;;;;;;32.50;29.75;;;;;16.60;65.95;101565.75;4907289;28;45846;-77
2021/09/03 04:08:33;;;;;;;;;34.50;29.00;;;;;16.54;66.20;101562.75;4906925;28;45633;-77
2021/09/03 04:10:59;;;;;;;;;33.75;28.25;;;;;16.51;66.35;101560.38;4911037;28;45524;-77
2021/09/03 04:13:24;;;;;;;;;28.00;25.00;;;;;16.47;66.30;101542.25;4909996;28;45847;-77
2021/09/03 04:15:50;;;;;;;;;35.25;27.00;;;;;16.50;66.24;101549.91;4913342;28;53951;-76
2021/09/03 04:18:17;;;;;;;;;32.75;27.00;;;;;16.49;66.42;101554.41;4931856;28;46393;-77
2021/09/03 04:20:42;;;;;;;;;32.00;27.75;;;;;16.48;66.44;101552.72;4908124;28;45365;-76
2021/09/03 04:23:09;;;;;;;;;35.00;28.00;;;;;16.47;66.53;101551.06;4910547;28;48729;-76
2021/09/03 04:25:35;;;;;;;;;32.25;30.00;;;;;16.45;66.46;101553.06;4919840;28;45505;-76
2021/09/03 04:28:01;;;;;;;;;26.25;25.25;;;;;16.45;66.77;101547.75;4915539;28;45697;-76
2021/09/03 04:30:27;;;;;;;;;29.75;25.50;;;;;16.43;66.68;101541.72;4908515;28;45750;-73
2021/09/03 04:32:52;;;;;;;;;30.25;26.00;;;;;16.42;66.89;101548.09;4905609;28;45613;-74
2021/09/03 04:35:17;;;;;;;;;28.25;26.25;;;;;16.42;66.68;101549.88;4911375;28;45489;-74
2021/09/03 04:37:51;;;;;;;;;27.75;25.50;;;;;16.40;66.92;101549.25;4909084;28;45573;-75
2021/09/03 04:40:18;;;;;;;;;34.50;27.75;;;;;16.38;66.76;101544.06;4909242;28;45664;-75
2021/09/03 04:42:44;;;;;;;;;33.00;25.25;;;;;16.36;66.96;101548.72;4908046;28;45726;-74
2021/09/03 04:45:10;;;;;;;;;34.75;31.00;;;;;16.35;66.75;101544.41;4906608;28;45679;-76
2021/09/03 04:47:37;;;;;;;;;24.25;24.25;;;;;16.32;66.83;101544.75;4907774;28;46176;-75
2021/09/03 04:50:07;;;;;;;;;30.00;27.00;;;;;16.28;66.91;101538.91;4910290;28;45912;-76
2021/09/03 04:52:33;;;;;;;;;31.75;25.75;;;;;16.26;67.05;101527.56;4917093;28;45514;-75
2021/09/03 04:54:58;;;;;;;;;31.25;27.25;;;;;16.29;66.87;101542.41;4916940;28;45509;-75
2021/09/03 04:57:24;;;;;;;;;29.75;25.75;;;;;16.26;66.83;101534.75;4917816;28;46552;-75
2021/09/03 04:59:49;;;;;;;;;30.50;26.50;;;;;16.27;67.05;101544.41;4908964;28;45563;-75
2021/09/03 05:02:16;;;;;;;;;29.75;24.50;;;;;16.25;67.12;101535.75;4924698;28;45424;-75
2021/09/03 05:04:42;;;;;;;;;30.25;26.00;;;;;16.25;67.09;101539.25;4911219;28;46164;-75
2021/09/03 05:07:07;;;;;;;;;25.75;24.50;;;;;16.24;67.25;101534.06;4909387;28;46155;-75
2021/09/03 05:09:32;;;;;;;;;32.25;27.25;;;;;16.21;67.41;101542.41;4907899;28;45452;-76
2021/09/03 05:11:58;;;;;;;;;27.75;24.50;;;;;16.18;67.22;101534.75;4904883;28;45770;-74
2021/09/03 05:14:23;;;;;;;;;26.25;24.25;;;;;16.18;67.05;101534.75;4914172;28;45563;-75
2021/09/03 05:16:49;;;;;;;;;30.25;24.75;;;;;16.21;67.09;101534.41;4924700;28;46322;-75
2021/09/03 05:19:14;;;;;;;;;24.75;22.00;;;;;16.21;67.04;101534.41;4918637;28;45610;-74
2021/09/03 05:21:40;;;;;;;;;27.50;22.75;;;;;16.21;66.79;101539.75;4909272;28;45560;-75
2021/09/03 05:24:06;;;;;;;;;30.25;27.00;;;;;16.22;67.09;101541.41;4921471;28;45551;-75
2021/09/03 05:26:32;;;;;;;;;33.00;29.00;;;;;16.21;67.15;101547.75;4908666;28;46292;-75
2021/09/03 05:28:57;;;;;;;;;31.00;26.00;;;;;16.23;66.89;101543.09;4924762;28;45765;-75
2021/09/03 05:31:23;;;;;;;;;29.75;26.50;;;;;16.27;67.40;101544.41;4912293;28;45724;-75
2021/09/03 05:33:48;;;;;;;;;34.75;30.75;;;;;16.30;67.19;101546.75;4908632;28;45482;-75
2021/09/03 05:36:14;;;;;;;;;38.00;33.00;;;;;16.35;67.14;101544.41;4905645;28;45677;-75
2021/09/03 05:38:40;;;;;;;;;40.25;33.00;;;;;16.37;66.80;101545.09;4918854;28;45585;-75
2021/09/03 05:41:05;;;;;;;;;40.75;33.50;;;;;16.44;66.62;101558.56;4923245;28;45516;-74
2021/09/03 05:43:31;;;;;;;;;39.00;32.00;;;;;16.48;67.12;101563.41;4913840;28;45568;-75
2021/09/03 05:45:56;;;;;;;;;40.50;34.00;;;;;16.51;67.04;101564.91;4920852;28;46162;-78
2021/09/03 05:48:22;;;;;;;;;40.00;33.00;;;;;16.55;66.54;101552.91;4917665;28;45641;-76
2021/09/03 05:50:48;;;;;;;;;36.25;32.00;;;;;16.61;66.43;101554.88;4923659;28;45717;-74
2021/09/03 05:53:13;;;;;;;;;36.75;32.75;;;;;16.66;66.22;101551.72;4924425;28;45530;-74
2021/09/03 05:55:39;;;;;;;;;37.25;32.25;;;;;16.72;66.23;101565.22;4928607;28;46242;-76
2021/09/03 05:58:04;;;;;;;;;42.50;34.00;;;;;16.78;66.27;101569.06;4936554;28;45792;-77
2021/09/03 06:00:31;;;;;;;;;44.25;32.75;;;;;16.84;65.94;101563.06;4935123;28;45660;-76
2021/09/03 06:02:57;;;;;;;;;35.00;32.25;;;;;16.93;66.35;101564.69;4953224;28;45717;-76
2021/09/03 06:05:23;;;;;;;;;41.00;34.25;;;;;16.98;65.78;101570.34;4920604;28;45963;-77
2021/09/03 06:07:48;;;;;;;;;37.25;32.25;;;;;17.00;65.93;101564.03;4922992;28;45558;-76
2021/09/03 06:10:14;;;;;;;;;40.00;33.50;;;;;17.03;65.64;101566.34;4931130;28;45617;-76
2021/09/03 06:12:40;;;;;;;;;38.50;33.25;;;;;17.06;65.54;101571.31;4906891;28;45550;-77
2021/09/03 06:15:07;;;;;;;;;40.50;32.00;;;;;17.14;65.86;101568.66;4935833;28;46030;-75
2021/09/03 06:17:32;;;;;;;;;36.50;32.00;;;;;17.18;66.07;101575.28;4925108;28;45534;-76
2021/09/03 06:19:58;;;;;;;;;44.50;33.00;;;;;17.23;64.97;101570.25;4915484;28;45430;-76
2021/09/03 06:22:24;;;;;;;;;30.50;28.75;;;;;17.28;65.12;101569.75;4932256;28;45561;-76
2021/09/03 06:24:49;;;;;;;;;39.50;32.25;;;;;17.36;65.52;101577.75;4917261;28;52031;-76
2021/09/03 06:27:15;;;;;;;;;33.75;30.25;;;;;17.37;64.87;101584.75;4923523;28;45537;-75
2021/09/03 06:29:41;;;;;;;;;40.25;33.00;;;;;17.40;64.50;101569.19;4928165;28;45538;-75
2021/09/03 06:32:12;;;;;;;;;37.75;33.00;;;;;17.47;64.45;101561.31;4918386;28;45612;-75
2021/09/03 06:34:40;;;;;;;;;35.00;29.00;;;;;17.56;64.28;101556.78;4938254;28;45454;-76
2021/09/03 06:37:06;;;;;;;;;33.50;30.75;;;;;17.71;64.40;101565.72;4932969;28;45659;-71
2021/09/03 06:39:32;;;;;;;;;40.75;30.75;;;;;17.82;63.78;101562.66;4926464;28;46093;-79
2021/09/03 06:41:58;;;;;;;;;32.25;30.50;;;;;17.89;63.53;101562.78;4914995;28;45526;-80
2021/09/03 06:44:23;;;;;;;;;37.75;27.25;;;;;17.98;63.41;101567.06;4919062;28;46212;-79
2021/09/03 06:46:48;;;;;;;;;35.50;30.00;;;;;18.12;63.12;101560.09;4932438;28;45522;-79
2021/09/03 06:49:14;;;;;;;;;39.25;31.75;;;;;18.26;62.81;101569.19;4941196;28;45516;-79
2021/09/03 06:51:39;;;;;;;;;33.25;30.50;;;;;18.43;62.87;101565.38;4945505;28;45659;-79
2021/09/03 06:54:05;;;;;;;;;31.50;24.25;;;;;18.59;61.58;101568.91;4931012;28;45939;-80
2021/09/03 06:56:30;;;;;;;;;40.00;32.00;;;;;18.77;61.71;101565.91;4921449;28;45576;-78
2021/09/03 06:58:55;;;;;;;;;38.00;31.00;;;;;18.99;61.59;101574.88;4933224;28;46032;-79
2021/09/03 07:01:21;;;;;;;;;31.25;28.00;;;;;19.18;60.06;101558.25;4939268;28;45996;-81
2021/09/03 07:03:47;;;;;;;;;30.75;26.50;;;;;19.26;60.30;101568.03;4930908;28;47570;-80
2021/09/03 07:06:12;;;;;;;;;26.50;21.75;;;;;19.39;59.38;101560.19;4909228;28;45588;-76
2021/09/03 07:08:38;;;;;;;;;30.75;24.75;;;;;19.36;59.78;101560.53;4935018;28;46221;-78
2021/09/03 07:11:03;;;;;;;;;26.00;21.00;;;;;19.37;59.64;101556.84;4917872;28;45624;-77
2021/09/03 07:13:30;;;;;;;;;20.50;18.75;;;;;19.49;59.20;101566.06;4934404;28;45688;-76
2021/09/03 07:15:55;;;;;;;;;22.25;21.75;;;;;20.05;58.82;101565.44;4932157;28;46089;-79
2021/09/03 07:18:21;;;;;;;;;21.75;18.00;;;;;21.26;56.84;101563.47;4916919;28;45535;-76
2021/09/03 07:20:46;;;;;;;;;20.00;19.75;;;;;21.58;53.33;101563.78;4917536;28;45559;-78
2021/09/03 07:23:11;;;;;;;;;20.75;18.00;;;;;21.65;54.04;101556.59;4920389;28;46151;-77
2021/09/03 07:25:37;;;;;;;;;23.50;22.50;;;;;21.90;53.24;101550.63;4921791;28;45538;-77
2021/09/03 07:28:02;;;;;;;;;21.00;18.25;;;;;22.24;52.26;101559.63;4918192;28;45399;-78
2021/09/03 07:30:28;;;;;;;;;18.00;17.25;;;;;22.59;52.33;101559.38;4958877;28;45550;-78
2021/09/03 07:32:56;;;;;;;;;18.75;18.50;;;;;22.72;51.71;101565.59;4916522;28;47032;-78
2021/09/03 07:35:22;;;;;;;;;16.50;16.50;;;;;22.64;51.26;101564.97;4924650;28;45523;-78
2021/09/03 07:37:47;;;;;;;;;23.00;19.25;;;;;23.00;51.40;101563.69;4941608;28;45593;-78
2021/09/03 07:40:12;;;;;;;;;19.25;15.25;;;;;23.09;50.28;101568.63;4942829;28;45625;-78
2021/09/03 07:42:38;;;;;;;;;16.50;15.50;;;;;23.06;50.57;101566.34;4917434;28;46889;-78
2021/09/03 07:45:05;;;;;;;;;17.50;16.00;;;;;23.05;50.49;101561.19;4925461;28;45582;-79
2021/09/03 07:47:31;;;;;;;;;18.25;17.75;;;;;23.14;49.93;101559.91;4927331;28;45892;-79
2021/09/03 07:49:56;;;;;;;;;22.00;19.50;;;;;23.22;50.50;101559.69;4928774;28;45566;-79
2021/09/03 07:52:23;;;;;;;;;22.00;19.50;;;;;25.05;48.32;101557.94;4917822;28;45936;-79
2021/09/03 07:54:48;;;;;;;;;22.25;19.00;;;;;27.81;44.96;101545.50;4912751;28;45507;-79
2021/09/03 07:57:13;;;;;;;;;19.75;17.00;;;;;30.65;37.48;101543.97;4918926;28;45446;-79
2021/09/03 07:59:39;;;;;;;;;19.75;17.00;;;;;33.16;36.77;101542.25;4915030;28;45639;-78
2021/09/03 08:02:04;;;;;;;;;17.25;16.50;;;;;35.51;33.56;101546.50;4918208;28;46105;-79
2021/09/03 08:04:31;;;;;;;;;13.25;13.25;;;;;37.28;28.75;101539.13;4916883;28;45562;-78
2021/09/03 08:06:57;;;;;;;;;18.00;16.00;;;;;38.44;28.88;101545.59;4915828;28;45573;-79
2021/09/03 08:09:23;;;;;;;;;15.00;14.25;;;;;39.69;28.89;101553.44;4917201;28;45614;-79
2021/09/03 08:11:49;;;;;;;;;16.75;15.75;;;;;41.14;25.99;101547.97;4916146;28;46517;-78
2021/09/03 08:14:14;;;;;;;;;15.50;15.00;;;;;42.52;24.00;101558.00;4918778;28;45490;-79
2021/09/03 08:16:40;;;;;;;;;14.50;13.25;;;;;43.06;22.45;101548.59;4916967;28;45605;-79
2021/09/03 08:19:06;;;;;;;;;13.75;12.00;;;;;43.21;20.52;101552.63;4917023;28;45527;-79
2021/09/03 08:21:31;;;;;;;;;12.75;12.50;;;;;43.66;23.11;101549.53;4916095;28;45672;-80
2021/09/03 08:23:57;;;;;;;;;17.75;17.75;;;;;44.73;21.55;101550.63;4916135;28;45442;-80
2021/09/03 08:26:22;;;;;;;;;18.00;16.25;;;;;45.73;20.88;101558.34;4916695;28;45500;-80
2021/09/03 08:28:48;;;;;;;;;14.00;12.50;;;;;46.80;19.90;101544.53;4919961;28;45399;-80
2021/09/03 08:31:13;;;;;;;;;15.25;14.00;;;;;47.54;18.75;101558.66;4914168;28;45510;-80
2021/09/03 08:33:39;;;;;;;;;17.00;14.00;;;;;48.12;19.17;101553.59;4927007;28;45573;-80
2021/09/03 08:36:04;;;;;;;;;15.75;15.25;;;;;48.32;18.10;101557.75;4916150;28;45589;-80
2021/09/03 08:38:30;;;;;;;;;19.00;16.50;;;;;48.41;17.65;101549.81;4917707;28;45677;-79
2021/09/03 08:40:57;;;;;;;;;16.00;14.50;;;;;48.81;14.73;101555.66;4912814;28;46365;-77
2021/09/03 08:43:23;;;;;;;;;16.50;14.25;;;;;48.39;14.91;101546.59;4911185;28;45448;-81
2021/09/03 08:45:50;;;;;;;;;13.75;12.75;;;;;48.39;16.96;101551.41;4913372;28;46154;-80
2021/09/03 08:48:20;;;;;;;;;15.50;14.00;;;;;49.00;15.31;101551.78;4926941;28;45564;-80
2021/09/03 08:50:47;;;;;;;;;13.00;11.75;;;;;49.17;15.51;101541.81;4914600;28;46250;-80
2021/09/03 08:53:20;;;;;;;;;15.00;13.75;;;;;49.32;15.48;101540.69;4917623;28;45866;-80
2021/09/03 08:55:48;;;;;;;;;14.25;13.50;;;;;49.53;15.45;101531.50;4934171;28;45777;-80
2021/09/03 08:58:14;;;;;;;;;14.25;14.25;;;;;48.37;15.68;101532.19;4921836;28;45606;-79
2021/09/03 09:00:41;;;;;;;;;11.50;11.25;;;;;47.81;16.06;101524.91;4947999;28;45409;-80
2021/09/03 09:03:13;;;;;;;;;13.25;13.25;;;;;48.12;16.40;101531.97;4911932;28;45562;-80
2021/09/03 09:05:45;;;;;;;;;16.00;15.00;;;;;48.80;15.50;101531.66;4926811;28;45540;-81
2021/09/03 09:08:11;;;;;;;;;14.25;13.00;;;;;48.99;15.35;101550.16;4921391;28;45680;-80
2021/09/03 09:10:48;;;;;;;;;14.00;13.00;;;;;49.25;15.17;101547.06;4917678;28;46826;-82
2021/09/03 09:13:15;;;;;;;;;11.50;11.50;;;;;49.63;13.68;101543.97;4917676;28;46928;-79
2021/09/03 09:15:40;;;;;;;;;15.25;13.25;;;;;49.66;14.88;101545.97;4923344;28;45541;-80
2021/09/03 09:18:05;;;;;;;;;14.50;13.25;;;;;48.83;13.63;101539.25;4921093;28;45541;-82
2021/09/03 09:20:33;;;;;;;;;13.50;12.50;;;;;48.40;14.42;101539.03;4925050;28;45561;-82
2021/09/03 09:23:04;;;;;;;;;12.50;12.50;;;;;48.45;14.72;101530.25;4916404;28;45602;-81
2021/09/03 09:25:35;;;;;;;;;13.50;13.50;;;;;48.32;13.27;101534.53;4919457;28;45670;-83
2021/09/03 09:28:21;;;;;;;;;13.25;13.25;;;;;47.71;14.60;101532.03;4913665;28;45578;-83
2021/09/03 09:30:49;;;;;;;;;13.50;11.00;;;;;47.96;14.63;101525.88;4923534;28;46034;-83
2021/09/03 09:33:17;;;;;;;;;11.50;11.00;;;;;48.36;14.97;101524.97;4918743;28;45451;-83
2021/09/03 09:35:53;;;;;;;;;13.50;11.50;;;;;47.65;13.80;101524.34;4911853;28;45973;-83
2021/09/03 09:38:30;;;;;;;;;13.75;12.75;;;;;46.72;14.63;101518.47;4916755;28;45561;-84
2021/09/03 09:40:57;;;;;;;;;15.00;12.75;;;;;46.82;13.44;101514.22;4928407;28;47027;-81
2021/09/03 09:43:29;;;;;;;;;18.00;13.50;;;;;46.20;15.06;101520.84;4927015;28;45539;-82
2021/09/03 09:46:22;;;;;;;;;14.75;12.75;;;;;45.88;15.92;101523.09;4912183;28;45704;-79
2021/09/03 09:48:51;;;;;;;;;15.25;14.50;;;;;45.55;14.56;101512.50;4920018;28;46012;-81
2021/09/03 09:51:23;;;;;;;;;13.00;13.00;;;;;44.68;16.30;101511.91;4923027;28;48050;-79
2021/09/03 09:54:08;;;;;;;;;13.50;10.50;;;;;43.45;16.07;101504.41;4915554;28;45616;-81
2021/09/03 09:56:42;;;;;;;;;18.00;16.00;;;;;41.55;17.75;101501.19;4914341;28;45525;-82
2021/09/03 09:59:10;;;;;;;;;14.25;14.25;;;;;39.64;19.55;101500.25;4909393;28;45530;-80
2021/09/03 10:01:37;;;;;;;;;15.25;13.50;;;;;38.77;20.83;101497.44;4918576;28;46776;-80
2021/09/03 10:04:11;;;;;;;;;13.75;13.25;;;;;38.18;21.54;101495.81;4924714;28;45796;-77
2021/09/03 10:06:40;;;;;;;;;14.50;13.00;;;;;37.95;22.27;101485.91;4914780;28;45852;-78
2021/09/03 10:09:11;;;;;;;;;12.00;11.25;;;;;37.98;22.78;101480.59;4917807;28;45641;-78
2021/09/03 10:11:41;;;;;;;;;14.50;13.00;;;;;37.91;21.49;101484.91;4913366;28;46641;-80
2021/09/03 10:14:08;;;;;;;;;14.75;14.75;;;;;37.39;22.05;101488.13;4912956;28;46046;-76
2021/09/03 10:16:34;;;;;;;;;12.25;12.25;;;;;37.27;23.52;101483.19;4925473;28;45457;-76
2021/09/03 10:19:03;;;;;;;;;12.25;11.25;;;;;37.64;23.62;101482.03;4923232;28;45618;-78
2021/09/03 10:21:35;;;;;;;;;14.00;13.75;;;;;37.75;23.51;101482.56;4917809;28;47107;-76
2021/09/03 10:24:01;;;;;;;;;12.50;12.00;;;;;37.92;21.94;101475.53;4911850;28;45418;-78
2021/09/03 10:26:30;;;;;;;;;14.75;12.50;;;;;37.36;24.20;101489.56;4915262;28;45566;-82
2021/09/03 10:29:35;;;;;;;;;10.75;9.50;;;;;37.30;24.48;101485.31;4914105;28;53420;-82
2021/09/03 10:32:03;;;;;;;;;13.50;13.00;;;;;37.65;23.53;101485.59;4976714;28;46501;-80
2021/09/03 10:34:47;;;;;;;;;14.50;13.50;;;;;37.98;23.36;101486.13;4976857;28;45697;-80
2021/09/03 10:37:12;;;;;;;;;16.25;14.75;;;;;38.30;22.79;101475.88;4977242;28;46021;-78
2021/09/03 10:40:02;;;;;;;;;12.00;11.00;;;;;38.42;22.99;101483.53;4981163;28;45595;-78
2021/09/03 10:45:11;;;;;;;;;13.75;12.50;;;;;38.29;24.37;101477.81;4974675;28;45707;-80
2021/09/03 10:47:47;;;;;;;;;15.00;15.00;;;;;38.52;22.79;101472.22;4970639;28;45626;-80
2021/09/03 10:50:24;;;;;;;;;13.25;11.75;;;;;38.68;23.71;101475.34;4973459;28;45664;-80
2021/09/03 10:53:04;;;;;;;;;12.50;11.75;;;;;39.10;23.63;101473.78;4974922;28;45779;-80
2021/09/03 10:55:49;;;;;;;;;14.50;11.75;;;;;39.52;22.84;101478.81;4977746;28;46101;-80
2021/09/03 10:58:44;;;;;;;;;12.50;11.50;;;;;39.87;22.23;101471.25;4978198;28;46017;-80
2021/09/03 11:01:09;;;;;;;;;12.50;12.50;;;;;39.88;22.70;101464.56;4898115;28;45535;-81
2021/09/03 11:03:47;;;;;;;;;10.75;10.75;;;;;40.20;23.63;101457.59;4901339;28;45551;-79
2021/09/03 11:06:14;;;;;;;;;10.00;10.00;;;;;40.51;22.23;101458.44;4899750;28;45502;-80
2021/09/03 11:08:41;;;;;;;;;15.00;12.75;;;;;40.30;22.03;101459.19;4860181;28;45600;-80
2021/09/03 11:11:32;;;;;;;;;12.75;12.50;;;;;40.13;22.88;101462.81;4868935;28;45879;-80